createdAt,value
2023-03-18T00:00:32.897Z,100710.0
2023-03-18T00:05:32.518Z,100710.0
2023-03-18T00:10:32.895Z,100700.0
2023-03-18T00:15:32.515Z,100690.0
2023-03-18T00:20:32.916Z,100690.0
2023-03-18T00:25:32.520Z,100690.0
2023-03-18T00:30:32.775Z,100710.0
2023-03-18T00:35:32.719Z,100710.0
2023-03-18T00:40:32.893Z,100720.0
2023-03-18T00:45:32.534Z,100720.0
2023-03-18T00:50:32.953Z,100720.0
2023-03-18T00:55:32.546Z,100720.0
2023-03-18T01:00:32.940Z,100720.0
2023-03-18T01:05:32.582Z,100720.0
2023-03-18T01:10:32.909Z,100720.0
2023-03-18T01:15:32.544Z,100730.0
2023-03-18T01:20:32.814Z,100730.0
2023-03-18T01:25:32.568Z,100750.0
2023-03-18T01:30:32.890Z,100740.0
2023-03-18T01:35:32.636Z,100730.0
2023-03-18T01:40:32.704Z,100730.0
2023-03-18T01:45:32.642Z,100730.0
2023-03-18T01:50:32.985Z,100730.0
2023-03-18T01:55:32.582Z,100730.0
2023-03-18T02:00:32.913Z,100720.0
2023-03-18T02:05:32.568Z,100720.0
2023-03-18T02:10:32.930Z,100720.0
2023-03-18T02:15:32.588Z,100730.0
2023-03-18T02:20:32.932Z,100730.0
2023-03-18T02:25:32.636Z,100720.0
2023-03-18T02:30:32.839Z,100730.0
2023-03-18T02:35:32.666Z,100730.0
2023-03-18T02:40:32.914Z,100730.0
2023-03-18T02:45:32.608Z,100740.0
2023-03-18T02:50:32.947Z,100740.0
2023-03-18T02:55:32.600Z,100760.0
2023-03-18T03:00:32.936Z,100760.0
2023-03-18T03:05:32.606Z,100770.0
2023-03-18T03:10:32.877Z,100760.0
2023-03-18T03:15:32.648Z,100760.0
2023-03-18T03:20:32.839Z,100770.0
2023-03-18T03:25:32.619Z,100780.0
2023-03-18T03:30:32.957Z,100780.0
2023-03-18T03:35:32.689Z,100790.0
2023-03-18T03:40:32.927Z,100790.0
2023-03-18T03:45:32.629Z,100790.0
2023-03-18T03:50:32.777Z,100800.0
2023-03-18T03:55:32.826Z,100800.0
2023-03-18T04:00:32.798Z,100800.0
2023-03-18T04:05:32.645Z,100790.0
2023-03-18T04:10:32.892Z,100810.0
2023-03-18T04:15:32.641Z,100810.0
2023-03-18T04:20:32.971Z,100800.0
2023-03-18T04:25:32.651Z,100820.0
2023-03-18T04:30:32.852Z,100820.0
2023-03-18T04:35:32.691Z,100810.0
2023-03-18T04:40:32.970Z,100810.0
2023-03-18T04:45:32.685Z,100820.0
2023-03-18T04:50:32.993Z,100820.0
2023-03-18T04:55:32.968Z,100810.0
2023-03-18T05:00:32.797Z,100820.0
2023-03-18T05:05:33.049Z,100830.0
2023-03-18T05:10:32.670Z,100830.0
2023-03-18T05:15:32.949Z,100840.0
2023-03-18T05:20:32.677Z,100840.0
2023-03-18T05:25:33.012Z,100840.0
2023-03-18T05:30:32.684Z,100840.0
2023-03-18T05:35:33.090Z,100850.0
2023-03-18T05:40:32.690Z,100850.0
2023-03-18T05:45:33.102Z,100850.0
2023-03-18T05:50:32.700Z,100850.0
2023-03-18T05:55:33.016Z,100850.0
2023-03-18T06:00:32.711Z,100850.0
2023-03-18T06:05:32.923Z,100860.0
2023-03-18T06:10:32.710Z,100880.0
2023-03-18T06:15:33.106Z,100880.0
2023-03-18T06:20:32.713Z,100880.0
2023-03-18T06:25:32.971Z,100880.0
2023-03-18T06:30:32.714Z,100870.0
2023-03-18T06:35:33.029Z,100880.0
2023-03-18T06:40:32.727Z,100870.0
2023-03-18T06:45:33.112Z,100880.0
2023-03-18T06:50:32.743Z,100880.0
2023-03-18T06:55:33.128Z,100880.0
2023-03-18T07:00:33.024Z,100880.0
2023-03-18T07:05:33.010Z,100890.0
2023-03-18T07:10:32.788Z,100890.0
2023-03-18T07:15:33.064Z,100900.0
2023-03-18T07:20:32.955Z,100910.0
2023-03-18T07:25:33.109Z,100910.0
2023-03-18T07:30:32.782Z,100930.0
2023-03-18T07:35:33.034Z,100930.0
2023-03-18T07:40:32.783Z,100930.0
2023-03-18T07:45:33.146Z,100930.0
2023-03-18T07:50:32.809Z,100940.0
2023-03-18T07:55:33.151Z,100940.0
2023-03-18T08:00:32.787Z,100950.0
2023-03-18T08:05:33.050Z,100960.0
2023-03-18T08:10:32.793Z,100960.0
2023-03-18T08:15:33.668Z,100960.0
2023-03-18T08:20:32.788Z,100960.0
2023-03-18T08:25:33.120Z,100960.0
2023-03-18T08:30:32.824Z,100960.0
2023-03-18T08:35:33.172Z,100960.0
2023-03-18T08:40:32.815Z,100950.0
2023-03-18T08:45:33.100Z,100960.0
2023-03-18T08:50:32.833Z,100970.0
2023-03-18T08:55:33.197Z,100970.0
2023-03-18T09:00:32.826Z,100970.0
2023-03-18T09:05:33.152Z,100970.0
2023-03-18T09:10:32.842Z,100960.0
2023-03-18T09:15:33.299Z,100960.0
2023-03-18T09:20:32.865Z,100970.0
2023-03-18T09:25:33.134Z,100960.0
2023-03-18T09:30:32.868Z,100960.0
2023-03-18T09:35:33.154Z,100960.0
2023-03-18T09:40:32.892Z,100970.0
2023-03-18T09:45:33.178Z,100970.0
2023-03-18T09:50:32.867Z,100980.0
2023-03-18T09:55:33.142Z,100980.0
2023-03-18T10:00:32.882Z,100990.0
2023-03-18T10:05:33.270Z,100990.0
2023-03-18T10:15:33.208Z,101000.0
2023-03-18T10:20:32.884Z,100990.0
2023-03-18T10:25:33.135Z,100990.0
2023-03-18T10:30:32.889Z,100990.0
2023-03-18T10:35:33.359Z,100980.0
2023-03-18T10:40:32.901Z,100990.0
2023-03-18T10:45:33.205Z,100980.0
2023-03-18T10:50:33.162Z,100980.0
2023-03-18T10:55:32.912Z,100970.0
2023-03-18T11:00:33.359Z,100970.0
2023-03-18T11:05:33.242Z,100960.0
2023-03-18T11:10:33.346Z,100950.0
2023-03-18T11:15:32.926Z,100960.0
2023-03-18T11:20:33.169Z,100960.0
2023-03-18T11:25:32.941Z,100950.0
2023-03-18T11:30:35.197Z,100940.0
2023-03-18T11:40:33.192Z,100940.0
2023-03-18T11:45:32.952Z,100950.0
2023-03-18T11:50:33.211Z,100950.0
2023-03-18T11:55:33.308Z,100970.0
2023-03-18T12:00:32.960Z,100960.0
2023-03-18T12:05:33.215Z,100970.0
2023-03-18T12:10:33.234Z,100960.0
2023-03-18T12:15:33.150Z,100960.0
2023-03-18T12:20:33.162Z,100950.0
2023-03-18T12:25:33.034Z,100960.0
2023-03-18T12:30:33.280Z,100960.0
2023-03-18T12:35:33.312Z,100960.0
2023-03-18T12:40:33.298Z,100960.0
2023-03-18T12:45:33.263Z,100960.0
2023-03-18T12:50:33.003Z,100960.0
2023-03-18T12:55:33.285Z,100960.0
2023-03-18T13:00:33.392Z,100960.0
2023-03-18T13:05:33.168Z,100960.0
2023-03-18T13:10:33.326Z,100970.0
2023-03-18T13:15:33.296Z,100960.0
2023-03-18T13:20:33.321Z,100960.0
2023-03-18T13:25:33.265Z,100960.0
2023-03-18T13:30:33.366Z,100940.0
2023-03-18T13:35:33.036Z,100940.0
2023-03-18T13:40:33.318Z,100950.0
2023-03-18T13:45:33.443Z,100950.0
2023-03-18T13:50:33.108Z,100950.0
2023-03-18T13:55:33.384Z,100950.0
2023-03-18T14:00:33.038Z,100950.0
2023-03-18T14:05:33.256Z,100950.0
2023-03-18T14:10:33.028Z,100940.0
2023-03-18T14:15:33.350Z,100930.0
2023-03-18T14:20:33.036Z,100930.0
2023-03-18T14:25:33.341Z,100930.0
2023-03-18T14:30:33.044Z,100930.0
2023-03-18T14:35:33.357Z,100930.0
2023-03-18T14:40:33.042Z,100920.0
2023-03-18T14:45:33.304Z,100920.0
2023-03-18T14:50:33.046Z,100920.0
2023-03-18T14:55:33.365Z,100910.0
2023-03-18T15:00:33.079Z,100900.0
2023-03-18T15:05:33.375Z,100900.0
2023-03-18T15:10:33.060Z,100900.0
2023-03-18T15:15:33.366Z,100890.0
2023-03-18T15:20:33.082Z,100890.0
2023-03-18T15:25:33.282Z,100900.0
2023-03-18T15:30:33.087Z,100890.0
2023-03-18T15:35:33.460Z,100890.0
2023-03-18T15:40:33.095Z,100900.0
2023-03-18T15:45:33.379Z,100900.0
2023-03-18T15:50:33.104Z,100900.0
2023-03-18T15:55:33.324Z,100890.0
2023-03-18T16:00:33.130Z,100890.0
2023-03-18T16:05:33.297Z,100890.0
2023-03-18T16:10:33.192Z,100890.0
2023-03-18T16:15:33.320Z,100890.0
2023-03-18T16:20:33.126Z,100880.0
2023-03-18T16:25:33.447Z,100890.0
2023-03-18T16:30:33.115Z,100890.0
2023-03-18T16:35:33.649Z,100890.0
2023-03-18T16:40:33.127Z,100880.0
2023-03-18T16:45:33.612Z,100870.0
2023-03-18T16:50:33.126Z,100870.0
2023-03-18T16:55:33.354Z,100880.0
2023-03-18T17:00:33.142Z,100880.0
2023-03-18T17:05:33.364Z,100880.0
2023-03-18T17:10:33.131Z,100890.0
2023-03-18T17:15:33.409Z,100890.0
2023-03-18T17:20:33.153Z,100900.0
2023-03-18T17:25:33.416Z,100910.0
2023-03-18T17:30:33.398Z,100910.0
2023-03-18T17:35:33.471Z,100910.0
2023-03-18T17:40:33.149Z,100920.0
2023-03-18T17:45:33.393Z,100920.0
2023-03-18T17:50:33.171Z,100920.0
2023-03-18T17:55:33.343Z,100910.0
2023-03-18T18:00:33.157Z,100920.0
2023-03-18T18:05:33.314Z,100920.0
2023-03-18T18:10:33.158Z,100930.0
2023-03-18T18:15:33.347Z,100930.0
2023-03-18T18:20:33.211Z,100930.0
2023-03-18T18:25:33.416Z,100940.0
2023-03-18T18:30:33.167Z,100940.0
2023-03-18T18:35:33.427Z,100940.0
2023-03-18T18:40:33.170Z,100940.0
2023-03-18T18:45:33.423Z,100950.0
2023-03-18T18:50:33.175Z,100950.0
2023-03-18T18:55:33.275Z,100960.0
2023-03-18T19:00:33.229Z,100950.0
2023-03-18T19:05:33.493Z,100950.0
2023-03-18T19:10:33.186Z,100950.0
2023-03-18T19:15:33.380Z,100950.0
2023-03-18T19:20:33.193Z,100960.0
2023-03-18T19:25:33.448Z,100960.0
2023-03-18T19:30:33.202Z,100960.0
2023-03-18T19:35:33.509Z,100960.0
2023-03-18T19:40:33.214Z,100960.0
2023-03-18T19:45:33.562Z,100960.0
2023-03-18T19:50:33.204Z,100960.0
2023-03-18T19:55:33.210Z,101010.0
2023-03-18T20:00:33.212Z,101040.0
2023-03-18T20:05:33.403Z,101040.0
2023-03-18T20:10:33.217Z,101040.0
2023-03-18T20:15:33.475Z,101040.0
2023-03-18T20:20:33.230Z,101050.0
2023-03-18T20:25:33.480Z,101050.0
2023-03-18T20:30:33.245Z,101050.0
2023-03-18T20:35:33.447Z,101040.0
2023-03-18T20:40:33.235Z,101040.0
2023-03-18T20:45:33.486Z,101040.0
2023-03-18T20:50:33.238Z,101040.0
2023-03-18T20:55:33.479Z,101040.0
2023-03-18T21:00:33.331Z,101040.0
2023-03-18T21:05:33.563Z,101040.0
2023-03-18T21:10:33.258Z,101040.0
2023-03-18T21:15:33.571Z,101030.0
2023-03-18T21:20:33.262Z,101030.0
2023-03-18T21:25:33.614Z,101040.0
2023-03-18T21:30:33.326Z,101040.0
2023-03-18T21:35:33.740Z,101030.0
2023-03-18T21:40:33.264Z,101030.0
2023-03-18T21:45:33.572Z,101020.0
2023-03-18T21:50:33.273Z,101010.0
2023-03-18T21:55:33.547Z,101010.0
2023-03-18T22:00:33.279Z,101010.0
2023-03-18T22:05:33.523Z,101000.0
2023-03-18T22:10:33.285Z,101010.0
2023-03-18T22:15:33.464Z,100990.0
2023-03-18T22:20:33.300Z,100990.0
2023-03-18T22:25:33.599Z,101000.0
2023-03-18T22:30:33.298Z,101030.0
2023-03-18T22:35:33.800Z,101040.0
2023-03-18T22:40:33.300Z,101050.0
2023-03-18T22:45:33.607Z,101050.0
2023-03-18T22:50:33.357Z,101040.0
2023-03-18T22:55:33.610Z,101040.0
2023-03-18T23:00:33.305Z,101050.0
2023-03-18T23:05:33.620Z,101050.0
2023-03-18T23:10:33.309Z,101040.0
2023-03-18T23:15:33.551Z,101030.0
2023-03-18T23:20:33.656Z,101030.0
2023-03-18T23:25:33.555Z,101040.0
2023-03-18T23:30:33.319Z,101040.0
2023-03-18T23:35:33.568Z,101020.0
2023-03-18T23:40:33.330Z,101030.0
2023-03-18T23:45:34.188Z,101020.0
2023-03-18T23:50:33.332Z,101020.0
